Time;durP1;ratioP1;P1;durP2;ratioP2;P2;SDS_P1;SDS_P2;PMS_P1;PMS_P2;Temp;Humidity;BMP_temperature;BMP_pressure;BME280_temperature;BME280_humidity;BME280_pressure;Samples;Min_cycle;Max_cycle;Signal;HPM_P1;HPM_P2
2021/12/16 00:01:49;;;;;;;8.85;7.28;;;;;;;1.30;98.51;100328.99;1691319;83;21175;-81
2021/12/16 00:10:19;;;;;;;9.93;7.85;;;;;;;1.35;98.14;100333.75;1689712;84;20998;-80
2021/12/16 00:34:00;;;;;;;10.55;8.95;;;;;;;1.39;97.91;100326.53;1654527;86;21063;-80
2021/12/16 00:36:18;;;;;;;10.68;9.38;;;;;;;1.40;97.75;100328.67;1655468;85;21029;-80
2021/12/16 00:38:45;;;;;;;10.95;7.92;;;;;;;1.40;97.57;100324.38;1695023;84;21028;-80
2021/12/16 00:41:13;;;;;;;11.45;8.70;;;;;;;1.42;97.46;100333.36;1685985;84;21148;-80
2021/12/16 00:43:49;;;;;;;11.08;8.73;;;;;;;1.43;97.34;100331.23;1684494;83;21115;-80
2021/12/16 00:54:15;;;;;;;11.78;9.23;;;;;;;1.42;96.92;100335.50;1687858;83;21571;-79
2021/12/16 00:56:46;;;;;;;11.35;9.10;;;;;;;1.37;97.13;100330.78;1688280;83;21049;-79
2021/12/16 00:59:16;;;;;;;16.70;11.33;;;;;;;1.33;97.08;100329.03;1653919;83;21100;-79
2021/12/16 01:07:33;;;;;;;16.07;10.87;;;;;;;1.27;97.56;100315.72;1641542;85;21115;-79
2021/12/16 01:34:34;;;;;;;26.73;14.90;;;;;;;1.14;97.40;100307.91;1659419;84;21196;-79
2021/12/16 01:50:18;;;;;;;26.02;14.53;;;;;;;1.08;97.52;100305.28;1688912;83;20953;-79
2021/12/16 01:53:06;;;;;;;30.20;15.50;;;;;;;1.12;97.75;100302.77;1665954;83;20998;-79
2021/12/16 01:55:29;;;;;;;28.55;16.00;;;;;;;1.16;97.54;100302.39;1665556;84;21580;-79
2021/12/16 01:57:59;;;;;;;28.50;15.95;;;;;;;1.18;97.51;100295.16;1687732;84;21312;-79
2021/12/16 02:00:45;;;;;;;29.57;17.07;;;;;;;1.22;97.58;100294.31;1684541;83;21045;-78
2021/12/16 02:03:05;;;;;;;35.35;17.73;;;;;;;1.24;97.39;100292.62;1681578;84;21078;-79
2021/12/16 02:05:56;;;;;;;30.88;16.40;;;;;;;1.26;97.27;100291.36;1683136;84;21005;-79
2021/12/16 02:08:24;;;;;;;34.88;19.55;;;;;;;1.27;97.26;100290.09;1686359;84;21025;-79
2021/12/16 02:11:01;;;;;;;36.05;19.35;;;;;;;1.24;97.12;100279.81;1662483;84;21070;-78
2021/12/16 02:27:15;;;;;;;34.20;19.40;;;;;;;1.21;97.25;100280.20;1686992;83;21134;-79
2021/12/16 02:37:31;;;;;;;39.15;19.12;;;;;;;1.34;97.68;100261.13;1684895;83;20169;-79
2021/12/16 02:39:57;;;;;;;38.17;19.67;;;;;;;1.34;97.75;100258.56;1642314;83;21094;-79
2021/12/16 02:42:38;;;;;;;37.55;20.00;;;;;;;1.36;97.56;100262.00;1657875;85;21081;-79
2021/12/16 02:50:24;;;;;;;37.38;20.20;;;;;;;1.37;97.47;100250.05;1680742;84;21002;-79
2021/12/16 02:52:51;;;;;;;35.92;19.60;;;;;;;1.38;97.24;100255.61;1686156;83;21119;-79
2021/12/16 02:55:19;;;;;;;34.88;17.25;;;;;;;1.35;96.95;100264.13;1689037;83;20990;-78
2021/12/16 02:57:55;;;;;;;36.83;18.95;;;;;;;1.30;97.02;100265.78;1688300;85;21067;-79
2021/12/16 03:00:16;;;;;;;38.28;19.62;;;;;;;1.26;97.14;100262.75;1685342;83;21001;-79
2021/12/16 03:02:47;;;;;;;36.70;19.40;;;;;;;1.25;97.11;100257.61;1690590;84;21036;-79
2021/12/16 03:05:15;;;;;;;33.90;18.60;;;;;;;1.23;97.18;100258.88;1690102;83;21549;-78
2021/12/16 03:07:41;;;;;;;35.30;18.30;;;;;;;1.24;97.35;100258.03;1657434;85;21055;-79
2021/12/16 03:12:55;;;;;;;35.68;19.23;;;;;;;1.30;97.44;100252.97;1636600;84;21092;-79
2021/12/16 03:15:56;;;;;;;39.60;20.52;;;;;;;1.32;97.27;100257.69;1681057;84;20958;-79
2021/12/16 03:20:51;;;;;;;36.80;19.55;;;;;;;1.37;97.35;100253.89;1684928;84;21069;-79
2021/12/16 03:26:01;;;;;;;36.70;19.65;;;;;;;1.46;97.08;100262.05;1662412;84;21022;-78
2021/12/16 03:31:10;;;;;;;38.90;20.75;;;;;;;1.49;97.18;100265.93;1685008;84;21119;-78
2021/12/16 03:36:24;;;;;;;40.83;20.85;;;;;;;1.44;96.77;100265.88;1685360;84;21481;-78
2021/12/16 03:38:37;;;;;;;39.58;20.82;;;;;;;1.43;96.89;100260.32;1661237;84;21013;-78
2021/12/16 03:41:05;;;;;;;39.80;20.57;;;;;;;1.42;96.93;100253.48;1668987;83;21103;-78
2021/12/16 03:43:34;;;;;;;37.85;19.75;;;;;;;1.42;97.09;100261.59;1692637;83;21128;-78
2021/12/16 03:48:58;;;;;;;36.30;18.27;;;;;;;1.47;97.15;100265.91;1688715;83;21041;-78
2021/12/16 03:51:47;;;;;;;42.95;21.02;;;;;;;1.50;97.15;100271.08;1640899;83;21216;-78
2021/12/16 03:54:28;;;;;;;36.17;18.82;;;;;;;1.52;96.96;100264.67;1657306;85;21299;-78
2021/12/16 03:57:01;;;;;;;37.90;20.23;;;;;;;1.54;96.86;100256.16;1684363;84;21002;-78
2021/12/16 03:59:30;;;;;;;35.88;19.37;;;;;;;1.55;96.83;100252.75;1664012;84;21009;-78
2021/12/16 04:02:02;;;;;;;42.83;21.50;;;;;;;1.57;96.73;100255.32;1661381;84;21670;-78
2021/12/16 04:04:30;;;;;;;38.35;19.00;;;;;;;1.57;96.64;100254.04;1660492;84;21080;-78
2021/12/16 04:06:58;;;;;;;34.88;18.95;;;;;;;1.59;96.71;100251.06;1687540;84;21115;-79
2021/12/16 04:09:25;;;;;;;35.23;19.70;;;;;;;1.62;96.65;100248.50;1663777;84;21013;-80
2021/12/16 04:12:07;;;;;;;34.73;19.67;;;;;;;1.65;96.74;100245.53;1682522;84;20953;-78
2021/12/16 04:14:26;;;;;;;34.20;19.53;;;;;;;1.76;96.94;100248.61;1682058;84;21068;-78
2021/12/16 04:16:54;;;;;;;34.85;18.52;;;;;;;1.84;96.42;100247.80;1658368;85;21108;-79
2021/12/16 04:19:26;;;;;;;35.08;19.07;;;;;;;1.84;95.90;100241.80;1688985;84;21155;-79
2021/12/16 04:21:58;;;;;;;33.90;18.60;;;;;;;1.79;95.57;100243.51;1691553;83;21203;-79
2021/12/16 04:24:25;;;;;;;33.70;18.17;;;;;;;1.76;95.61;100239.64;1686851;84;21006;-79
2021/12/16 04:26:53;;;;;;;33.18;19.12;;;;;;;1.75;95.72;100241.77;1661339;85;20974;-79
2021/12/16 04:29:23;;;;;;;33.45;18.67;;;;;;;1.72;95.66;100229.36;1681543;83;21566;-79
2021/12/16 04:31:54;;;;;;;34.08;18.45;;;;;;;1.71;95.66;100238.31;1690601;83;21005;-79
2021/12/16 04:34:22;;;;;;;31.90;18.65;;;;;;;1.75;95.85;100240.48;1662491;84;21802;-80
2021/12/16 04:36:50;;;;;;;29.77;17.62;;;;;;;1.80;95.61;100241.38;1684257;83;21379;-79
2021/12/16 04:39:21;;;;;;;34.43;18.60;;;;;;;1.80;95.32;100234.52;1687033;84;21524;-79
2021/12/16 04:41:49;;;;;;;32.48;19.30;;;;;;;1.77;95.21;100240.93;1687248;83;21033;-79
2021/12/16 04:44:17;;;;;;;29.92;18.23;;;;;;;1.76;95.30;100247.33;1684631;83;21119;-79
2021/12/16 04:46:44;;;;;;;31.77;18.02;;;;;;;1.73;95.17;100247.74;1684564;83;21527;-80
2021/12/16 04:49:11;;;;;;;36.35;20.82;;;;;;;1.72;95.17;100249.02;1684286;84;20963;-79
2021/12/16 04:51:44;;;;;;;34.08;18.55;;;;;;;1.66;95.07;100237.42;1686148;83;21118;-79
2021/12/16 04:54:11;;;;;;;33.55;19.77;;;;;;;1.63;95.16;100240.82;1683035;83;20962;-79
2021/12/16 04:56:38;;;;;;;28.05;17.48;;;;;;;1.63;95.45;100245.09;1681873;84;21080;-79
2021/12/16 04:59:08;;;;;;;26.60;17.07;;;;;;;1.65;95.48;100239.12;1679023;84;22158;-79
2021/12/16 05:01:38;;;;;;;31.77;19.30;;;;;;;1.64;95.27;100232.28;1683715;84;21049;-80
2021/12/16 05:04:05;;;;;;;34.35;19.55;;;;;;;1.60;95.31;100238.69;1681617;84;21037;-79
2021/12/16 05:06:33;;;;;;;27.32;17.00;;;;;;;1.56;95.51;100238.22;1658826;84;20973;-79
2021/12/16 05:08:59;;;;;;;29.35;17.35;;;;;;;1.55;95.59;100242.48;1684726;83;20994;-79
2021/12/16 05:11:33;;;;;;;29.52;17.62;;;;;;;1.53;95.64;100240.34;1688871;83;21222;-79
2021/12/16 05:13:59;;;;;;;27.77;16.62;;;;;;;1.50;95.77;100235.60;1660930;84;21145;-79
2021/12/16 05:16:28;;;;;;;31.33;18.23;;;;;;;1.51;96.08;100246.30;1685883;84;21026;-79
2021/12/16 05:18:56;;;;;;;34.18;18.98;;;;;;;1.52;96.00;100240.32;1690155;83;21085;-79
2021/12/16 05:24:17;;;;;;;35.03;18.52;;;;;;;1.46;96.08;100244.11;1667193;83;21083;-79
2021/12/16 05:26:42;;;;;;;32.90;19.52;;;;;;;1.41;96.20;100235.09;1690315;83;21481;-80
2021/12/16 05:29:10;;;;;;;33.88;19.40;;;;;;;1.40;96.43;100233.83;1639661;84;20985;-79
2021/12/16 05:31:37;;;;;;;29.42;18.45;;;;;;;1.38;96.44;100229.98;1686452;84;21016;-79
2021/12/16 05:34:06;;;;;;;32.98;18.77;;;;;;;1.34;96.56;100223.11;1690802;83;21014;-81
2021/12/16 05:36:34;;;;;;;35.60;20.40;;;;;;;1.31;96.76;100222.66;1652041;85;21196;-79
2021/12/16 05:39:01;;;;;;;32.25;19.73;;;;;;;1.33;97.02;100220.97;1682080;85;20994;-79
2021/12/16 05:41:30;;;;;;;39.00;22.52;;;;;;;1.37;97.18;100216.72;1662000;83;21178;-79
2021/12/16 05:43:56;;;;;;;33.15;20.32;;;;;;;1.42;97.33;100216.73;1657810;84;21073;-79
2021/12/16 05:46:24;;;;;;;36.05;19.92;;;;;;;1.44;97.02;100215.05;1685233;83;21144;-78
2021/12/16 05:48:52;;;;;;;37.00;19.35;;;;;;;1.45;97.06;100216.76;1689925;83;21181;-79
2021/12/16 05:51:24;;;;;;;35.70;20.15;;;;;;;1.45;96.99;100212.49;1660376;85;21026;-78
2021/12/16 05:53:51;;;;;;;35.73;20.57;;;;;;;1.45;97.11;100211.63;1685454;83;20938;-78
2021/12/16 05:56:25;;;;;;;28.30;17.25;;;;;;;1.47;97.48;100209.94;1662115;85;21068;-78
2021/12/16 05:58:53;;;;;;;35.17;18.87;;;;;;;1.55;97.76;100213.43;1683023;84;21010;-79
2021/12/16 06:01:24;;;;;;;29.82;18.35;;;;;;;1.59;97.32;100216.03;1659537;84;21146;-79
2021/12/16 06:03:52;;;;;;;30.97;18.70;;;;;;;1.62;97.33;100223.72;1656633;84;21034;-79
2021/12/16 06:06:19;;;;;;;32.80;18.70;;;;;;;1.62;97.01;100227.56;1672208;83;21060;-79
2021/12/16 06:08:46;;;;;;;30.17;18.50;;;;;;;1.59;97.15;100230.55;1674215;83;20965;-78
2021/12/16 06:11:17;;;;;;;27.93;17.52;;;;;;;1.62;97.44;100222.44;1686525;83;20947;-78
2021/12/16 06:14:17;;;;;;;30.82;19.92;;;;;;;1.70;97.53;100226.34;1684986;83;21200;-79
2021/12/16 06:22:42;;;;;;;29.57;17.67;;;;;;;1.93;96.60;100222.63;1649419;84;21015;-79
2021/12/16 06:27:45;;;;;;;33.73;18.67;;;;;;;2.00;96.37;100217.95;1629644;86;21561;-81
2021/12/16 06:30:16;;;;;;;27.77;16.32;;;;;;;2.02;96.32;100225.23;1677835;83;21104;-80
2021/12/16 06:32:42;;;;;;;27.60;16.02;;;;;;;2.02;95.84;100223.95;1683671;83;20966;-80
2021/12/16 06:35:10;;;;;;;25.12;14.60;;;;;;;1.97;95.54;100224.38;1684283;84;20993;-80
2021/12/16 06:37:37;;;;;;;30.43;18.42;;;;;;;1.90;95.56;100231.16;1687024;83;21017;-81
2021/12/16 06:40:08;;;;;;;37.65;22.77;;;;;;;1.87;95.64;100231.56;1683726;84;21141;-80
2021/12/16 06:42:40;;;;;;;32.17;20.30;;;;;;;1.88;95.75;100231.58;1681188;84;20950;-81
2021/12/16 06:45:13;;;;;;;30.32;19.05;;;;;;;1.92;95.88;100232.03;1682964;83;21029;-81
2021/12/16 06:47:48;;;;;;;29.42;17.25;;;;;;;1.97;95.81;100231.64;1669946;83;20999;-83
2021/12/16 06:50:23;;;;;;;27.32;16.17;;;;;;;2.03;95.76;100229.52;1691515;83;21143;-81
2021/12/16 06:52:43;;;;;;;26.35;17.40;;;;;;;2.14;95.63;100236.00;1682518;84;21161;-81
2021/12/16 06:57:44;;;;;;;28.02;15.85;;;;;;;2.32;95.01;100247.63;1685505;83;20973;-82
2021/12/16 07:00:22;;;;;;;25.72;15.68;;;;;;;2.31;94.30;100249.34;1687587;83;21019;-82
2021/12/16 07:03:04;;;;;;;23.38;15.08;;;;;;;2.27;93.72;100249.30;1697805;82;21157;-81
2021/12/16 07:05:37;;;;;;;24.52;14.98;;;;;;;2.20;93.72;100254.00;1685345;84;21479;-82
2021/12/16 07:08:07;;;;;;;28.62;16.85;;;;;;;2.15;93.36;100262.95;1688696;84;21489;-82
2021/12/16 07:10:33;;;;;;;31.70;18.00;;;;;;;2.08;92.72;100258.20;1687770;83;21009;-82
2021/12/16 07:13:06;;;;;;;21.35;12.68;;;;;;;2.03;92.32;100256.03;1655905;85;21092;-82
2021/12/16 07:15:29;;;;;;;15.32;10.55;;;;;;;2.01;91.47;100260.29;1663892;83;21046;-81
2021/12/16 07:17:57;;;;;;;16.60;11.08;;;;;;;2.00;90.41;100254.72;1685152;83;21090;-81
2021/12/16 07:20:30;;;;;;;17.92;10.93;;;;;;;1.94;89.15;100245.73;1680028;82;21569;-82
2021/12/16 07:22:58;;;;;;;13.48;9.70;;;;;;;1.91;88.85;100252.55;1663425;84;21502;-82
2021/12/16 07:25:25;;;;;;;15.03;9.95;;;;;;;1.88;88.69;100249.96;1695947;83;21027;-81
2021/12/16 07:27:52;;;;;;;15.68;10.53;;;;;;;1.88;88.91;100252.52;1679227;82;20943;-82
2021/12/16 07:30:20;;;;;;;14.68;10.30;;;;;;;1.89;88.75;100247.83;1641374;84;21511;-81
2021/12/16 07:32:46;;;;;;;14.50;10.18;;;;;;;1.89;88.13;100249.97;1677758;82;21094;-81
2021/12/16 07:35:16;;;;;;;18.30;12.30;;;;;;;1.87;88.11;100249.52;1663071;84;21029;-82
2021/12/16 07:37:43;;;;;;;17.57;12.00;;;;;;;1.87;88.25;100250.38;1667753;83;21020;-81
2021/12/16 07:40:12;;;;;;;15.35;10.28;;;;;;;1.87;87.44;100243.11;1654504;83;20994;-81
2021/12/16 07:42:48;;;;;;;15.78;10.58;;;;;;;1.87;86.79;100245.25;1642943;83;21220;-82
2021/12/16 07:45:16;;;;;;;23.50;15.85;;;;;;;1.85;86.40;100240.53;1698908;82;21166;-81
2021/12/16 07:47:45;;;;;;;32.53;20.45;;;;;;;1.83;86.80;100237.09;1709058;83;20954;-80
2021/12/16 07:50:13;;;;;;;36.13;23.52;;;;;;;1.85;87.23;100220.02;1688339;83;21006;-81
2021/12/16 07:52:40;;;;;;;23.25;14.78;;;;;;;1.91;87.62;100217.92;1703904;82;21164;-81
2021/12/16 07:55:09;;;;;;;19.35;13.78;;;;;;;1.96;87.93;100218.81;1712611;82;21152;-81
2021/12/16 07:57:36;;;;;;;22.42;16.62;;;;;;;2.03;88.41;100214.12;1701534;82;21096;-81
2021/12/16 08:00:10;;;;;;;16.32;10.85;;;;;;;2.14;88.36;100212.48;1690882;82;21140;-82
2021/12/16 08:02:40;;;;;;;22.95;13.95;;;;;;;2.24;87.91;100206.52;1695623;82;21427;-81
2021/12/16 08:05:08;;;;;;;15.43;10.75;;;;;;;2.29;87.30;100206.11;1684183;83;22406;-81
2021/12/16 08:07:35;;;;;;;14.95;10.28;;;;;;;2.31;86.67;100203.13;1684313;83;21125;-82
2021/12/16 08:10:05;;;;;;;14.25;9.95;;;;;;;2.30;86.54;100199.27;1678828;83;21057;-81
2021/12/16 08:12:33;;;;;;;12.20;9.35;;;;;;;2.30;86.54;100196.28;1659031;85;21607;-78
2021/12/16 08:15:01;;;;;;;12.73;9.45;;;;;;;2.32;86.56;100195.00;1666984;85;21001;-87
2021/12/16 08:17:28;;;;;;;16.48;9.18;;;;;;;2.33;86.49;100188.59;1661709;85;21010;-77
2021/12/16 08:19:55;;;;;;;16.07;9.40;;;;;;;2.37;86.34;100184.33;1634515;84;21130;-76
2021/12/16 08:22:22;;;;;;;13.98;9.60;;;;;;;2.36;86.06;100182.19;1665329;83;21076;-80
2021/12/16 08:24:48;;;;;;;15.58;9.38;;;;;;;2.40;86.47;100178.75;1673439;84;21002;-80
2021/12/16 08:27:15;;;;;;;15.45;10.55;;;;;;;2.47;86.75;100178.35;1681463;83;21077;-78
2021/12/16 08:29:42;;;;;;;13.38;10.15;;;;;;;2.60;86.97;100174.95;1651548;85;20965;-75
2021/12/16 08:32:09;;;;;;;13.60;10.15;;;;;;;2.72;86.55;100166.00;1660086;84;21209;-78
2021/12/16 08:34:38;;;;;;;12.98;10.13;;;;;;;2.84;86.40;100159.14;1654306;85;21540;-77
2021/12/16 08:37:06;;;;;;;16.07;10.13;;;;;;;2.92;86.02;100151.02;1666010;84;21003;-78
2021/12/16 08:39:34;;;;;;;15.60;10.30;;;;;;;3.01;85.73;100156.15;1677178;83;21520;-73
2021/12/16 08:42:00;;;;;;;13.08;8.23;;;;;;;3.06;85.43;100154.45;1670185;83;21418;-74
2021/12/16 08:44:27;;;;;;;12.53;9.03;;;;;;;3.13;85.14;100146.31;1677844;84;21041;-75
2021/12/16 08:47:01;;;;;;;15.65;9.70;;;;;;;3.19;84.87;100143.31;1675308;84;21195;-75
2021/12/16 08:49:28;;;;;;;11.50;9.28;;;;;;;3.27;84.50;100139.00;1681303;84;21159;-77
2021/12/16 08:51:57;;;;;;;12.15;8.20;;;;;;;3.33;83.92;100137.72;1667607;85;21077;-76
2021/12/16 08:54:24;;;;;;;12.58;9.28;;;;;;;3.36;83.35;100139.01;1637640;86;21025;-76
2021/12/16 08:56:51;;;;;;;9.68;7.12;;;;;;;3.34;83.51;100145.01;1659638;85;21552;-77
2021/12/16 08:59:18;;;;;;;9.70;6.80;;;;;;;3.34;83.28;100129.15;1645486;85;21593;-79
2021/12/16 09:01:48;;;;;;;15.13;10.45;;;;;;;3.40;83.42;100129.55;1647549;84;21082;-74
2021/12/16 09:04:19;;;;;;;13.08;9.05;;;;;;;3.52;83.81;100125.68;1685073;83;21426;-73
2021/12/16 09:06:46;;;;;;;13.68;10.00;;;;;;;3.66;83.42;100118.77;1685946;82;21112;-78
2021/12/16 09:09:13;;;;;;;11.55;7.62;;;;;;;3.78;83.21;100112.75;1689957;82;21969;-74
2021/12/16 09:11:55;;;;;;;10.72;7.33;;;;;;;3.90;82.74;100113.11;1677311;84;21073;-77
2021/12/16 09:14:08;;;;;;;11.88;8.40;;;;;;;3.97;82.57;100111.80;1684217;83;21066;-76
2021/12/16 09:16:35;;;;;;;12.60;9.60;;;;;;;4.05;82.05;100111.75;1660443;84;21110;-77
2021/12/16 09:19:04;;;;;;;14.78;11.40;;;;;;;4.09;81.90;100104.01;1684262;84;21394;-79
2021/12/16 09:21:33;;;;;;;14.03;11.38;;;;;;;4.11;81.89;100110.44;1668731;85;21228;-77
2021/12/16 09:24:00;;;;;;;14.18;9.78;;;;;;;4.11;82.24;100101.00;1655549;85;21474;-78
2021/12/16 09:26:28;;;;;;;12.70;8.35;;;;;;;4.10;82.22;100087.70;1613316;88;21018;-77
2021/12/16 09:28:55;;;;;;;11.53;7.20;;;;;;;4.12;82.26;100091.13;1633993;85;21626;-76
2021/12/16 09:31:26;;;;;;;9.85;7.58;;;;;;;4.11;81.93;100091.13;1664957;82;21564;-77
2021/12/16 09:33:53;;;;;;;9.90;7.33;;;;;;;4.08;81.91;100087.28;1678279;83;21137;-76
2021/12/16 09:36:23;;;;;;;11.33;7.33;;;;;;;4.07;82.17;100076.56;1645136;83;21054;-76
2021/12/16 09:38:50;;;;;;;12.65;8.00;;;;;;;4.12;82.36;100083.41;1680964;83;21154;-76
2021/12/16 09:41:18;;;;;;;9.13;7.17;;;;;;;4.07;82.27;100079.14;1676683;83;21026;-76
2021/12/16 09:43:48;;;;;;;10.75;8.70;;;;;;;4.02;82.44;100080.87;1698389;81;21596;-80
2021/12/16 09:46:18;;;;;;;14.45;8.43;;;;;;;3.99;82.90;100074.48;1711671;82;21942;-75
2021/12/16 09:48:45;;;;;;;12.28;8.43;;;;;;;3.98;83.03;100074.91;1700355;82;21070;-79
2021/12/16 09:51:20;;;;;;;19.67;12.13;;;;;;;3.98;83.40;100065.05;1692852;83;20954;-79
2021/12/16 09:53:44;;;;;;;15.25;11.15;;;;;;;4.05;83.61;100079.14;1685614;83;21165;-78
2021/12/16 09:56:22;;;;;;;11.15;9.23;;;;;;;4.12;83.83;100070.53;1657615;85;20966;-73
2021/12/16 09:58:50;;;;;;;14.28;9.28;;;;;;;4.21;84.08;100065.74;1649037;85;21183;-78
2021/12/16 10:01:17;;;;;;;12.05;8.45;;;;;;;4.26;83.63;100058.00;1680553;83;21063;-77
2021/12/16 10:03:47;;;;;;;12.43;8.55;;;;;;;4.24;83.60;100055.86;1681619;82;21094;-77
2021/12/16 10:06:14;;;;;;;11.22;8.35;;;;;;;4.22;83.63;100048.58;1692587;83;21557;-78
2021/12/16 10:08:43;;;;;;;14.13;9.98;;;;;;;4.24;84.02;100039.98;1693085;82;21092;-80
2021/12/16 10:11:10;;;;;;;12.60;10.23;;;;;;;4.33;84.35;100048.09;1680763;82;21949;-76
2021/12/16 10:13:47;;;;;;;12.13;10.20;;;;;;;4.39;84.35;100041.62;1658052;84;21588;-78
2021/12/16 10:18:37;;;;;;;13.43;9.80;;;;;;;4.38;84.35;100034.75;1668721;84;21453;-81
2021/12/16 10:21:06;;;;;;;15.85;10.68;;;;;;;4.33;84.27;100036.50;1616972;86;21112;-76
2021/12/16 10:23:39;;;;;;;11.38;9.03;;;;;;;4.30;84.68;100032.22;1688806;83;21073;-78
2021/12/16 10:26:09;;;;;;;11.97;9.23;;;;;;;4.28;84.84;100027.95;1657515;84;21057;-78
2021/12/16 10:28:45;;;;;;;11.70;8.55;;;;;;;4.28;85.13;100021.51;1624121;86;21165;-78
2021/12/16 10:31:30;;;;;;;13.28;10.15;;;;;;;4.32;85.33;100012.47;1621957;86;21039;-79
2021/12/16 10:34:07;;;;;;;21.75;11.80;;;;;;;4.37;85.67;100008.15;1601902;87;21137;-79
2021/12/16 10:36:47;;;;;;;15.80;11.48;;;;;;;4.47;85.30;100003.33;1615522;86;21867;-78
2021/12/16 10:39:22;;;;;;;12.68;8.75;;;;;;;4.52;85.72;99995.56;1636768;86;21058;-79
2021/12/16 10:41:55;;;;;;;14.23;10.30;;;;;;;4.64;85.38;99996.73;1661225;85;21069;-79
2021/12/16 10:44:27;;;;;;;11.43;9.95;;;;;;;4.66;85.38;99990.28;1656733;86;21097;-79
2021/12/16 10:47:00;;;;;;;14.43;10.65;;;;;;;4.70;85.38;99986.37;1615613;87;21015;-79
2021/12/16 10:49:36;;;;;;;13.03;10.08;;;;;;;4.73;85.55;99985.06;1609843;86;21229;-79
2021/12/16 10:52:14;;;;;;;17.82;9.18;;;;;;;4.76;85.66;99983.75;1662673;84;21536;-78
2021/12/16 10:54:45;;;;;;;13.72;9.20;;;;;;;4.79;85.71;99986.30;1639821;86;21089;-78
2021/12/16 10:57:30;;;;;;;17.95;10.13;;;;;;;4.81;85.92;99984.97;1643349;84;21076;-78
2021/12/16 11:00:01;;;;;;;13.62;10.80;;;;;;;4.82;86.01;99977.66;1661233;84;21211;-78
2021/12/16 11:02:36;;;;;;;12.82;9.98;;;;;;;4.81;86.29;99972.09;1648887;86;21088;-78
2021/12/16 11:05:17;;;;;;;13.28;11.15;;;;;;;4.83;86.33;99970.35;1653687;86;21157;-78
2021/12/16 11:07:52;;;;;;;15.05;9.70;;;;;;;4.78;86.39;99958.83;1665033;84;21095;-78
2021/12/16 11:10:27;;;;;;;14.38;11.28;;;;;;;4.77;86.52;99965.28;1668779;84;21542;-78
2021/12/16 11:13:03;;;;;;;17.32;14.68;;;;;;;4.71;86.83;99956.31;1685536;83;21217;-77
2021/12/16 11:15:40;;;;;;;19.32;15.30;;;;;;;4.68;87.30;99948.17;1680299;85;21241;-79
2021/12/16 11:18:21;;;;;;;38.63;26.15;;;;;;;4.72;87.95;99947.72;1683662;83;21168;-78
2021/12/16 11:20:57;;;;;;;21.37;15.38;;;;;;;4.82;87.80;99947.59;1684903;83;21085;-78
2021/12/16 11:23:34;;;;;;;17.98;12.82;;;;;;;4.87;87.49;99942.39;1683548;83;20989;-77
2021/12/16 11:26:08;;;;;;;18.40;13.20;;;;;;;4.83;87.26;99936.41;1677696;83;21082;-78
2021/12/16 11:28:39;;;;;;;15.23;11.53;;;;;;;4.77;87.63;99936.50;1654901;84;21523;-78
2021/12/16 11:31:11;;;;;;;17.35;11.03;;;;;;;4.77;87.72;99942.09;1660328;83;20970;-78
2021/12/16 11:33:42;;;;;;;;;;;;;;;4.72;87.74;99941.28;1664443;84;20978;-74
2021/12/16 11:36:13;;;;;;;17.37;13.08;;;;;;;4.63;87.78;99937.05;1645817;85;20152;-77
2021/12/16 11:38:59;;;;;;;18.70;13.55;;;;;;;4.53;88.37;99932.02;1652773;84;21023;-74
2021/12/16 11:41:35;;;;;;;19.92;14.68;;;;;;;4.48;88.58;99920.47;1621598;84;21193;-76
2021/12/16 11:44:11;;;;;;;23.45;14.40;;;;;;;4.47;89.08;99925.20;1671538;84;21056;-74
2021/12/16 11:47:04;;;;;;;24.40;15.30;;;;;;;4.49;89.39;99915.73;1653609;84;21502;-73
2021/12/16 11:49:43;;;;;;;19.77;14.13;;;;;;;4.49;89.47;99918.31;1689857;83;21220;-79
2021/12/16 11:52:21;;;;;;;22.22;16.37;;;;;;;4.43;89.75;99926.09;1651920;84;21031;-77
2021/12/16 11:54:55;;;;;;;19.80;13.32;;;;;;;4.37;89.93;99928.75;1663406;83;21135;-81
2021/12/16 11:57:29;;;;;;;19.75;14.68;;;;;;;4.30;90.08;99924.08;1660799;84;21454;-79
2021/12/16 12:00:04;;;;;;;29.85;16.23;;;;;;;4.22;90.52;99917.27;1665114;84;21013;-78
2021/12/16 12:02:40;;;;;;;25.00;15.23;;;;;;;4.19;90.91;99914.75;1681545;83;21494;-78
2021/12/16 12:05:34;;;;;;;20.82;14.10;;;;;;;4.21;91.24;99910.41;1667532;84;21020;-78
2021/12/16 12:08:09;;;;;;;18.90;14.23;;;;;;;4.23;91.35;99908.68;1657651;84;21155;-79
2021/12/16 12:10:48;;;;;;;20.12;15.45;;;;;;;4.22;91.65;99910.40;1649576;84;21097;-77
2021/12/16 12:13:23;;;;;;;23.38;16.32;;;;;;;4.27;91.81;99912.94;1688709;83;21037;-78
2021/12/16 12:16:41;;;;;;;22.80;15.65;;;;;;;4.32;91.81;99911.19;1661491;82;21015;-78
2021/12/16 12:19:16;;;;;;;23.87;16.90;;;;;;;4.33;91.75;99912.89;1720424;81;21604;-78
2021/12/16 12:21:57;;;;;;;22.67;15.35;;;;;;;4.23;91.66;99908.68;1722818;81;21045;-77
2021/12/16 12:24:46;;;;;;;21.93;15.50;;;;;;;4.18;91.99;99904.88;1735131;81;21591;-78
2021/12/16 12:27:23;;;;;;;28.95;19.10;;;;;;;4.18;92.20;99910.03;1715793;82;21042;-78
2021/12/16 12:29:58;;;;;;;32.85;21.35;;;;;;;4.16;92.39;99906.61;1706162;83;21116;-77
2021/12/16 12:32:29;;;;;;;43.25;26.30;;;;;;;4.12;92.48;99908.36;1686337;83;21078;-77
2021/12/16 12:35:08;;;;;;;21.75;17.00;;;;;;;4.12;92.69;99911.36;1696293;83;21839;-77
2021/12/16 12:37:38;;;;;;;23.67;15.98;;;;;;;4.12;92.81;99900.63;1695469;83;21561;-77
2021/12/16 12:40:11;;;;;;;25.00;16.52;;;;;;;4.13;92.75;99901.48;1685950;83;21047;-77
2021/12/16 12:42:37;;;;;;;24.47;16.52;;;;;;;4.07;92.90;99896.38;1705721;82;21431;-78
2021/12/16 12:45:08;;;;;;;25.50;16.57;;;;;;;4.07;93.10;99893.80;1720061;82;21512;-77
2021/12/16 12:47:36;;;;;;;26.30;17.40;;;;;;;4.08;93.24;99889.94;1710326;83;21118;-78
2021/12/16 12:50:10;;;;;;;29.48;18.00;;;;;;;4.08;93.17;99889.94;1736514;81;21038;-77
2021/12/16 12:52:38;;;;;;;26.00;17.25;;;;;;;4.07;93.30;99897.23;1717690;81;21446;-77
2021/12/16 12:55:12;;;;;;;34.18;18.95;;;;;;;4.07;93.28;99896.38;1682697;82;21116;-76
2021/12/16 12:57:41;;;;;;;28.10;18.60;;;;;;;4.05;93.51;99893.81;1690343;82;21596;-77
2021/12/16 13:00:25;;;;;;;29.80;19.65;;;;;;;4.04;93.68;99895.97;1710132;82;21133;-78
2021/12/16 13:03:00;;;;;;;29.98;19.07;;;;;;;4.00;93.75;99887.84;1685673;82;21596;-79
2021/12/16 13:05:27;;;;;;;25.65;16.85;;;;;;;3.98;93.89;99881.89;1706345;82;20993;-78
2021/12/16 13:08:00;;;;;;;27.75;17.45;;;;;;;3.95;94.05;99875.47;1710318;82;21026;-78
2021/12/16 13:10:39;;;;;;;;;;;;;;;3.93;94.21;99869.91;1714325;82;21081;-78
2021/12/16 13:13:32;;;;;;;23.92;16.45;;;;;;;3.94;94.51;99865.19;1715253;82;21095;-78
2021/12/16 13:25:23;;;;;;;24.00;17.55;;;;;;;3.95;95.04;99856.61;1704514;81;21070;-78
2021/12/16 13:27:35;;;;;;;;;;;;;;;3.95;95.21;99853.59;1726970;81;21374;-80
2021/12/16 13:33:20;;;;;;;27.27;18.70;;;;;;;3.99;95.37;99847.56;1710942;82;21058;-77
2021/12/16 13:35:50;;;;;;;27.48;17.73;;;;;;;4.03;95.36;99846.64;1724042;81;21764;-75
2021/12/16 13:38:20;;;;;;;31.15;18.67;;;;;;;4.04;95.32;99840.63;1715351;81;20969;-79
2021/12/16 13:40:50;;;;;;;31.57;19.30;;;;;;;4.06;95.19;99838.90;1701074;82;21385;-72
2021/12/16 13:43:22;;;;;;;32.28;21.52;;;;;;;4.05;95.24;99839.77;1725120;82;21007;-73
2021/12/16 13:46:48;;;;;;;34.60;23.15;;;;;;;4.04;95.17;99839.78;1728852;81;21057;-78
2021/12/16 13:48:52;;;;;;;29.90;20.80;;;;;;;4.03;95.27;99842.78;1681704;81;21029;-72
2021/12/16 14:05:33;;;;;;;29.65;19.87;;;;;;;4.05;95.38;99820.89;1697129;83;21195;-78
2021/12/16 14:08:10;;;;;;;31.35;20.77;;;;;;;4.04;95.53;99832.05;1706293;83;21134;-77
2021/12/16 14:10:49;;;;;;;31.75;21.60;;;;;;;4.00;95.53;99831.22;1700324;83;21533;-76
2021/12/16 14:16:55;;;;;;;31.87;21.62;;;;;;;4.00;95.84;99827.80;1706955;83;21222;-77
2021/12/16 14:25:14;;;;;;;29.80;19.27;;;;;;;4.03;96.14;99840.64;1726000;82;21089;-77
2021/12/16 14:42:34;;;;;;;25.72;17.42;;;;;;;4.14;96.11;99853.00;1705553;82;21124;-76
2021/12/16 14:50:13;;;;;;;26.90;17.87;;;;;;;4.22;96.20;99849.05;1734991;82;21482;-79
2021/12/16 14:52:40;;;;;;;26.85;18.48;;;;;;;4.24;96.22;99830.58;1700554;81;21132;-79
2021/12/16 14:55:10;;;;;;;30.77;18.85;;;;;;;4.23;96.19;99826.30;1730659;81;21532;-78